Hauptseite
METAR-TAF:

METAR-TAF

Flughäfen :

Flughafen Castres-Mazamet

Castres, Frankreich

Breite: 43-33-25N, Länge: 2-17-21E, Höhe: 239 m

Beobachtung

Neuester Wetterbericht von vor 35 Minuten, um 19:00 UTC
Wind 10 kt aus Südost
Temperatur 31°C
Luftfeuchtigkeit 29%
Luftdruck 1016 hPa
Sichtweite 10 km oder mehr
keine Wolken unter 1500 m und keine Kumulonimbus oder Gewitterwolken

METAR: LFCK 061900Z AUTO 13010KT CAVOK 31/11 Q1016 TEMPO 27004KT

Zeit: 21:35 (19:35 UTC)

Prognose

Neuester Wetterbericht von vor 2 Stunden und 35 Minuten, um 17:00 UTC
Gültige Prognose vom 06 um 18 UTC bis 07 um 03 UTC
Wind 4 kt aus West
Sichtweite 10 km oder mehr
keine Wolken unter 1500 m und keine Kumulonimbus oder Gewitterwolken
Übergehend zu
vom 06 um 20 UTC bis 06 um 22 UTC
Wind 12 kt aus Ost/Südost

TAF: LFCK 061700Z 0618/0703 27004KT CAVOK BECMG 0620/0622 12012KT

Wetterbeobachtungen und Prognosen von mehr als 4000 Flughäfen (METAR und TAF Bericht).

Die verfügbaren Stationen werden durch gelbe und rote Markierungen auf der Karte dargestellt.

Führen Sie die Maus auf sie, um den Namen der Station zu sehen.

Darauf klicken, um die Beobachtung von Wetterbeobachtungen und Prognosen zu sehen.

Um die Karte zu ändern : klicken Sie auf den grünen Tasten mit einem schwarzen Kreuz Zum Vergrößern, auf den grünen Button mit einem Gedankenstrich zu verkleinern, oder auf die grünen Pfeile für benachbarte Karten.


METAR-TAF: